createdAt,value
2019-05-06T00:01:41.711Z,77.91
2019-05-06T00:04:14.027Z,78.06
2019-05-06T00:06:46.345Z,77.29
2019-05-06T00:09:17.745Z,77.84
2019-05-06T00:11:49.639Z,77.94
2019-05-06T00:14:23.445Z,78.51
2019-05-06T00:16:55.738Z,78.28
2019-05-06T00:19:27.226Z,78.67
2019-05-06T00:21:58.403Z,78.75
2019-05-06T00:24:31.378Z,79.18
2019-05-06T00:27:04.856Z,79.16
2019-05-06T00:29:36.422Z,79.21
2019-05-06T00:32:07.727Z,78.99
2019-05-06T00:34:38.930Z,78.25
2019-05-06T00:37:11.521Z,79.13
2019-05-06T00:39:44.389Z,78.81
2019-05-06T00:42:18.294Z,79.09
2019-05-06T00:44:50.170Z,79.69
2019-05-06T00:47:21.802Z,79.61
2019-05-06T00:49:54.707Z,79.52
2019-05-06T00:52:27.380Z,79.96
2019-05-06T00:54:59.648Z,79.19
2019-05-06T00:57:34.035Z,79.35
2019-05-06T01:00:06.936Z,79.94
2019-05-06T01:02:39.417Z,79.56
2019-05-06T01:05:10.994Z,79.39
2019-05-06T01:07:44.020Z,79.24
2019-05-06T01:10:17.261Z,79.01
2019-05-06T01:12:50.273Z,79.37
2019-05-06T01:15:25.849Z,79.25
2019-05-06T01:17:59.369Z,79.28
2019-05-06T01:20:33.790Z,79.21
2019-05-06T01:23:04.701Z,79.03
2019-05-06T01:25:35.939Z,78.52
2019-05-06T01:28:07.748Z,78.58
2019-05-06T01:30:39.666Z,78.46
2019-05-06T01:33:11.556Z,78.82
2019-05-06T01:35:44.358Z,78.78
2019-05-06T01:38:18.960Z,78.20
2019-05-06T01:40:54.554Z,77.99
2019-05-06T01:43:27.860Z,78.29
2019-05-06T01:45:59.461Z,78.56
2019-05-06T01:48:33.659Z,78.50
2019-05-06T01:51:05.982Z,78.49
2019-05-06T01:53:38.176Z,78.88
2019-05-06T01:56:09.515Z,79.16
2019-05-06T01:58:40.804Z,78.83
2019-05-06T02:01:12.129Z,79.37
2019-05-06T02:03:44.156Z,79.26
2019-05-06T02:06:16.451Z,79.05
2019-05-06T02:08:48.439Z,79.20
2019-05-06T02:11:20.513Z,79.00
2019-05-06T02:13:53.815Z,79.13
2019-05-06T02:16:26.420Z,79.24
2019-05-06T02:18:59.470Z,79.14
2019-05-06T02:21:30.548Z,78.75
2019-05-06T02:24:04.267Z,78.68
2019-05-06T02:26:36.274Z,79.27
2019-05-06T02:29:09.459Z,79.19
2019-05-06T02:31:42.096Z,78.87
2019-05-06T02:34:15.414Z,80.02
2019-05-06T02:36:47.454Z,79.66
2019-05-06T02:39:18.749Z,80.09
2019-05-06T02:41:49.814Z,79.83
2019-05-06T02:44:23.792Z,79.38
2019-05-06T02:46:56.454Z,80.28
2019-05-06T02:49:29.410Z,79.91
2019-05-06T02:52:03.093Z,80.10
2019-05-06T02:54:34.662Z,79.91
2019-05-06T02:57:07.512Z,79.47
2019-05-06T02:59:39.882Z,79.79
2019-05-06T03:02:13.954Z,80.63
2019-05-06T03:04:45.717Z,80.50
2019-05-06T03:07:16.880Z,80.44
2019-05-06T03:09:48.490Z,81.46
2019-05-06T03:12:22.870Z,81.39
2019-05-06T03:14:53.648Z,81.54
2019-05-06T03:17:28.809Z,81.48
2019-05-06T03:20:04.326Z,81.23
2019-05-06T03:22:37.494Z,80.94
2019-05-06T03:25:13.314Z,80.58
2019-05-06T03:27:46.992Z,80.50
2019-05-06T03:30:19.041Z,80.51
2019-05-06T03:33:23.435Z,80.41
2019-05-06T03:35:36.304Z,80.39
2019-05-06T03:37:59.293Z,80.44
2019-05-06T03:40:36.176Z,80.35
2019-05-06T03:43:05.495Z,80.47
2019-05-06T03:45:38.443Z,80.91
2019-05-06T03:48:12.980Z,80.80
2019-05-06T03:50:44.738Z,81.38
2019-05-06T03:53:16.909Z,81.34
2019-05-06T03:55:53.747Z,80.94
2019-05-06T03:58:26.849Z,81.21
2019-05-06T04:00:59.841Z,81.22
2019-05-06T04:03:44.058Z,81.11
2019-05-06T04:06:05.837Z,81.30
2019-05-06T04:08:37.497Z,81.23
2019-05-06T04:11:13.423Z,80.67
2019-05-06T04:13:49.515Z,81.04
2019-05-06T04:16:23.247Z,81.73
2019-05-06T04:18:57.691Z,82.29
2019-05-06T04:21:32.977Z,81.87
2019-05-06T04:24:04.660Z,81.82
2019-05-06T04:26:38.031Z,81.00
2019-05-06T04:29:12.916Z,81.09
2019-05-06T04:31:43.969Z,80.81
2019-05-06T04:34:19.474Z,80.44
2019-05-06T04:36:48.599Z,79.93
2019-05-06T04:39:23.322Z,80.16
2019-05-06T04:41:54.680Z,79.75
2019-05-06T04:44:26.780Z,79.33
2019-05-06T04:46:59.078Z,79.01
2019-05-06T04:49:33.109Z,79.19
2019-05-06T04:52:06.453Z,78.39
2019-05-06T04:54:38.547Z,78.22
2019-05-06T04:57:12.887Z,78.05
2019-05-06T04:59:46.077Z,77.31
2019-05-06T05:02:18.819Z,77.57
2019-05-06T05:04:52.869Z,78.38
2019-05-06T05:07:24.737Z,78.50
2019-05-06T05:09:58.354Z,78.36
2019-05-06T05:12:33.551Z,78.24
2019-05-06T05:15:06.574Z,77.82
2019-05-06T05:17:42.001Z,77.38
2019-05-06T05:20:13.106Z,76.79
2019-05-06T05:22:48.106Z,76.92
2019-05-06T05:25:19.198Z,77.15
2019-05-06T05:27:52.732Z,76.58
2019-05-06T05:30:25.978Z,76.23
2019-05-06T05:32:58.209Z,75.71
2019-05-06T05:35:32.121Z,73.80
2019-05-06T05:38:03.871Z,73.73
2019-05-06T05:40:36.586Z,73.71
2019-05-06T05:43:11.742Z,72.84
2019-05-06T05:45:44.561Z,72.39
2019-05-06T05:48:19.303Z,71.09
2019-05-06T05:50:52.511Z,69.68
2019-05-06T05:53:26.087Z,69.29
2019-05-06T05:55:58.787Z,68.41
2019-05-06T05:58:33.127Z,67.10
2019-05-06T06:01:04.925Z,66.40
2019-05-06T06:03:37.538Z,65.07
2019-05-06T06:06:12.466Z,61.34
2019-05-06T06:08:44.040Z,60.58
2019-05-06T06:11:18.523Z,58.12
2019-05-06T06:13:52.173Z,58.31
2019-05-06T06:16:23.822Z,58.60
2019-05-06T06:19:03.228Z,59.08
2019-05-06T06:21:32.376Z,56.57
2019-05-06T06:24:05.040Z,55.77
2019-05-06T06:26:37.566Z,55.42
2019-05-06T06:29:09.295Z,57.10
2019-05-06T06:31:42.846Z,57.35
2019-05-06T06:34:16.264Z,57.95
2019-05-06T06:36:49.517Z,57.76
2019-05-06T06:39:24.439Z,55.92
2019-05-06T06:41:56.318Z,55.89
2019-05-06T06:44:29.263Z,56.15
2019-05-06T06:47:02.189Z,56.20
2019-05-06T06:49:35.114Z,55.41
2019-05-06T06:52:11.296Z,55.27
2019-05-06T06:54:44.540Z,54.92
2019-05-06T06:57:19.362Z,54.22
2019-05-06T06:59:53.205Z,53.02
2019-05-06T07:02:26.661Z,53.14
2019-05-06T07:05:02.348Z,51.71
2019-05-06T07:07:43.411Z,49.86
2019-05-06T07:10:12.119Z,50.72
2019-05-06T07:12:43.723Z,50.29
2019-05-06T07:15:15.221Z,51.42
2019-05-06T07:17:46.446Z,49.68
2019-05-06T07:20:22.856Z,51.78
2019-05-06T07:22:54.901Z,50.14
2019-05-06T07:25:26.655Z,49.91
2019-05-06T07:27:59.314Z,49.51
2019-05-06T07:30:32.325Z,48.54
2019-05-06T07:33:06.467Z,48.10
2019-05-06T07:35:41.103Z,49.33
2019-05-06T07:38:12.316Z,49.22
2019-05-06T07:40:47.150Z,47.94
2019-05-06T07:43:22.040Z,48.73
2019-05-06T07:45:55.504Z,47.24
2019-05-06T07:48:28.271Z,49.53
2019-05-06T07:51:03.032Z,50.76
2019-05-06T07:53:34.883Z,50.20
2019-05-06T07:56:07.887Z,51.00
2019-05-06T07:58:43.095Z,49.86
2019-05-06T08:01:16.067Z,51.28
2019-05-06T08:03:49.231Z,51.95
2019-05-06T08:06:22.734Z,51.18
2019-05-06T08:08:56.061Z,51.78
2019-05-06T08:11:27.988Z,50.74
2019-05-06T08:13:59.533Z,48.69
2019-05-06T08:16:32.377Z,48.43
2019-05-06T08:19:05.236Z,47.62
2019-05-06T08:21:38.661Z,46.34
2019-05-06T08:24:11.955Z,45.75
2019-05-06T08:26:43.368Z,43.96
2019-05-06T08:29:16.030Z,44.13
2019-05-06T08:31:49.189Z,40.18
2019-05-06T08:34:22.605Z,39.78
2019-05-06T08:36:56.725Z,41.02
2019-05-06T08:39:29.639Z,40.49
2019-05-06T08:42:02.857Z,39.98
2019-05-06T08:44:35.796Z,40.85
2019-05-06T08:47:08.060Z,40.54
2019-05-06T08:49:42.274Z,41.22
2019-05-06T08:52:15.708Z,42.35
2019-05-06T08:54:48.481Z,42.07
2019-05-06T08:57:19.894Z,43.34
2019-05-06T08:59:51.034Z,44.51
2019-05-06T09:02:24.743Z,38.93
2019-05-06T09:04:55.759Z,38.78
2019-05-06T09:07:27.147Z,40.93
2019-05-06T09:09:59.548Z,41.11
2019-05-06T09:12:32.939Z,38.12
2019-05-06T09:15:06.265Z,39.42
2019-05-06T09:17:37.911Z,40.68
2019-05-06T09:20:09.948Z,39.26
2019-05-06T09:22:43.110Z,36.49
2019-05-06T09:25:16.045Z,35.82
2019-05-06T09:27:47.268Z,35.33
2019-05-06T09:30:23.058Z,37.78
2019-05-06T09:32:55.033Z,39.94
2019-05-06T09:35:27.559Z,38.89
2019-05-06T09:38:02.186Z,40.52
2019-05-06T09:40:34.715Z,40.93
2019-05-06T09:43:07.566Z,39.90
2019-05-06T09:45:38.909Z,41.35
2019-05-06T09:48:12.853Z,41.50
2019-05-06T09:50:46.792Z,39.52
2019-05-06T09:53:23.094Z,39.16
2019-05-06T09:56:03.136Z,39.71
2019-05-06T09:58:36.132Z,39.29
2019-05-06T10:01:09.370Z,40.46
2019-05-06T10:03:42.599Z,41.58
2019-05-06T10:06:14.701Z,43.25
2019-05-06T10:08:46.627Z,42.46
2019-05-06T10:11:18.836Z,42.71
2019-05-06T10:13:52.419Z,40.26
2019-05-06T10:16:24.725Z,41.69
2019-05-06T10:18:56.912Z,41.47
2019-05-06T10:21:32.197Z,40.53
2019-05-06T10:24:03.940Z,41.08
2019-05-06T10:26:37.123Z,39.74
2019-05-06T10:29:08.754Z,40.28
2019-05-06T10:31:43.181Z,40.02
2019-05-06T10:34:14.902Z,41.20
2019-05-06T10:36:50.119Z,41.46
2019-05-06T10:39:26.010Z,41.35
2019-05-06T10:42:03.281Z,41.29
2019-05-06T10:44:38.273Z,42.11
2019-05-06T10:47:12.153Z,43.06
2019-05-06T10:49:43.818Z,44.88
2019-05-06T10:52:16.940Z,43.52
2019-05-06T10:54:48.107Z,42.52
2019-05-06T10:57:22.206Z,39.20
2019-05-06T10:59:54.040Z,38.42
2019-05-06T11:02:28.778Z,37.39
2019-05-06T11:05:02.783Z,38.61
2019-05-06T11:07:35.593Z,39.35
2019-05-06T11:10:20.564Z,40.27
2019-05-06T11:12:43.104Z,41.94
2019-05-06T11:15:16.518Z,43.60
2019-05-06T11:17:49.167Z,44.32
2019-05-06T11:20:24.178Z,45.97
2019-05-06T11:22:55.708Z,47.66
2019-05-06T11:25:28.569Z,47.92
2019-05-06T11:28:02.928Z,48.33
2019-05-06T11:30:37.017Z,48.32
2019-05-06T11:33:13.132Z,47.97
2019-05-06T11:35:46.346Z,48.35
2019-05-06T11:38:19.239Z,48.06
2019-05-06T11:40:52.920Z,47.78
2019-05-06T11:43:25.022Z,46.17
2019-05-06T11:45:57.799Z,46.37
2019-05-06T11:48:32.620Z,46.78
2019-05-06T11:51:05.591Z,45.29
2019-05-06T11:53:39.872Z,44.21
2019-05-06T11:56:12.726Z,44.46
2019-05-06T11:58:46.643Z,43.38
2019-05-06T12:01:21.320Z,40.48
2019-05-06T12:03:53.012Z,40.87
2019-05-06T12:06:26.000Z,43.02
2019-05-06T12:08:58.725Z,42.87
2019-05-06T12:11:31.542Z,42.01
2019-05-06T12:14:04.992Z,40.45
2019-05-06T12:16:38.027Z,40.73
2019-05-06T12:19:09.595Z,41.65
2019-05-06T12:21:43.144Z,41.32
2019-05-06T12:24:15.198Z,43.18
2019-05-06T12:26:46.861Z,42.17
2019-05-06T12:29:20.005Z,42.95
2019-05-06T12:31:53.369Z,42.61
2019-05-06T12:34:26.227Z,42.00
2019-05-06T12:36:59.145Z,42.02
2019-05-06T12:39:33.016Z,41.59
2019-05-06T12:42:06.339Z,42.38
2019-05-06T12:44:39.510Z,43.02
2019-05-06T12:47:13.988Z,40.30
2019-05-06T12:49:45.301Z,39.69
2019-05-06T12:52:17.208Z,39.04
2019-05-06T12:54:48.736Z,39.22
2019-05-06T12:57:23.374Z,39.31
2019-05-06T12:59:54.922Z,40.00
2019-05-06T13:02:32.801Z,38.63
2019-05-06T13:05:04.909Z,37.73
2019-05-06T13:07:37.779Z,39.12
2019-05-06T13:10:09.076Z,37.75
2019-05-06T13:12:42.365Z,38.11
2019-05-06T13:15:13.889Z,36.97
2019-05-06T13:17:45.343Z,36.32
2019-05-06T13:20:17.166Z,37.64
2019-05-06T13:22:53.131Z,38.10
2019-05-06T13:25:23.526Z,39.00
2019-05-06T13:27:55.315Z,38.57
2019-05-06T13:30:28.405Z,38.53
2019-05-06T13:33:04.078Z,37.34
2019-05-06T13:35:36.210Z,38.15
2019-05-06T13:38:08.745Z,37.78
2019-05-06T13:40:53.854Z,35.60
2019-05-06T13:43:16.436Z,35.39
2019-05-06T13:45:52.578Z,35.67
2019-05-06T13:48:25.757Z,34.71
2019-05-06T13:50:58.969Z,33.30
2019-05-06T13:53:39.276Z,32.79
2019-05-06T13:56:05.226Z,34.14
2019-05-06T13:58:38.268Z,33.44
2019-05-06T14:01:11.084Z,32.97
2019-05-06T14:03:45.608Z,33.96
2019-05-06T14:06:18.274Z,33.54
2019-05-06T14:08:49.767Z,34.83
2019-05-06T14:11:23.100Z,34.48
2019-05-06T14:13:54.934Z,33.90
2019-05-06T14:16:26.788Z,34.43
2019-05-06T14:18:58.228Z,34.17
2019-05-06T14:21:32.405Z,33.59
2019-05-06T14:24:05.312Z,34.88
2019-05-06T14:26:44.467Z,33.14
2019-05-06T14:29:15.789Z,33.62
2019-05-06T14:31:48.639Z,32.12
2019-05-06T14:34:23.119Z,32.09
2019-05-06T14:36:54.583Z,31.21
2019-05-06T14:39:47.439Z,30.56
2019-05-06T14:42:03.903Z,30.94
2019-05-06T14:44:33.761Z,30.94
2019-05-06T14:47:08.320Z,31.06
2019-05-06T14:49:39.785Z,31.40
2019-05-06T14:52:13.172Z,33.10
2019-05-06T14:54:47.936Z,33.94
2019-05-06T14:57:22.777Z,34.63
2019-05-06T14:59:55.902Z,34.52
2019-05-06T15:02:28.350Z,35.57
2019-05-06T15:05:02.747Z,35.92
2019-05-06T15:07:35.031Z,34.93
2019-05-06T15:10:19.198Z,34.20
2019-05-06T15:12:42.454Z,34.04
2019-05-06T15:15:15.044Z,32.36
2019-05-06T15:17:47.840Z,32.94
2019-05-06T15:20:19.463Z,33.67
2019-05-06T15:22:53.038Z,32.50
2019-05-06T15:25:26.334Z,33.22
2019-05-06T15:27:59.344Z,32.02
2019-05-06T15:30:34.176Z,32.27
2019-05-06T15:33:08.269Z,31.78
2019-05-06T15:35:42.720Z,32.64
2019-05-06T15:38:16.496Z,33.14
2019-05-06T15:40:48.302Z,33.11
2019-05-06T15:43:19.408Z,32.72
2019-05-06T15:45:52.651Z,34.34
2019-05-06T15:48:24.180Z,35.08
2019-05-06T15:50:57.113Z,35.50
2019-05-06T15:53:33.328Z,36.21
2019-05-06T15:56:04.834Z,37.54
2019-05-06T15:58:38.037Z,37.58
2019-05-06T16:01:09.723Z,37.55
2019-05-06T16:03:43.223Z,37.33
2019-05-06T16:06:16.063Z,36.60
2019-05-06T16:08:47.091Z,36.16
2019-05-06T16:11:19.628Z,36.37
2019-05-06T16:13:53.419Z,34.07
2019-05-06T16:16:25.357Z,34.37
2019-05-06T16:18:58.120Z,36.01
2019-05-06T16:21:29.889Z,35.53
2019-05-06T16:24:04.528Z,36.18
2019-05-06T16:26:36.753Z,34.77
2019-05-06T16:29:08.166Z,35.33
2019-05-06T16:31:42.265Z,35.01
2019-05-06T16:34:14.780Z,35.12
2019-05-06T16:36:47.780Z,35.55
2019-05-06T16:39:19.594Z,34.84
2019-05-06T16:41:52.537Z,35.36
2019-05-06T16:44:25.521Z,35.51
2019-05-06T16:46:57.508Z,35.77
2019-05-06T16:49:29.559Z,35.69
2019-05-06T16:52:02.519Z,35.74
2019-05-06T16:54:35.115Z,36.11
2019-05-06T16:57:08.482Z,36.86
2019-05-06T16:59:42.316Z,36.76
2019-05-06T17:02:14.627Z,36.91
2019-05-06T17:04:47.648Z,35.97
2019-05-06T17:07:22.205Z,36.52
2019-05-06T17:09:54.359Z,36.78
2019-05-06T17:12:27.903Z,36.54
2019-05-06T17:15:01.018Z,36.29
2019-05-06T17:17:43.179Z,36.83
2019-05-06T17:20:07.693Z,38.12
2019-05-06T17:22:39.675Z,36.94
2019-05-06T17:25:11.726Z,38.22
2019-05-06T17:27:57.410Z,38.26
2019-05-06T17:30:35.811Z,37.56
2019-05-06T17:33:09.737Z,39.20
2019-05-06T17:35:42.858Z,38.55
2019-05-06T17:38:16.311Z,39.26
2019-05-06T17:40:48.135Z,39.28
2019-05-06T17:43:19.847Z,39.94
2019-05-06T17:46:03.748Z,41.01
2019-05-06T17:48:35.433Z,40.99
2019-05-06T17:51:08.808Z,42.29
2019-05-06T17:53:43.473Z,40.48
2019-05-06T17:56:15.966Z,43.17
2019-05-06T17:58:53.144Z,43.14
2019-05-06T18:01:26.374Z,44.81
2019-05-06T18:03:58.167Z,42.26
2019-05-06T18:06:32.442Z,42.93
2019-05-06T18:09:04.391Z,45.05
2019-05-06T18:11:38.489Z,47.17
2019-05-06T18:14:13.227Z,47.64
2019-05-06T18:16:44.873Z,48.84
2019-05-06T18:19:16.236Z,49.99
2019-05-06T18:21:48.405Z,49.70
2019-05-06T18:24:20.314Z,50.75
2019-05-06T18:26:52.877Z,51.83
2019-05-06T18:29:25.347Z,51.00
2019-05-06T18:31:57.148Z,52.68
2019-05-06T18:34:28.507Z,53.94
2019-05-06T18:36:59.217Z,54.35
2019-05-06T18:39:30.073Z,54.90
2019-05-06T18:42:13.407Z,55.11
2019-05-06T18:44:35.444Z,55.10
2019-05-06T18:47:06.610Z,55.42
2019-05-06T18:49:38.532Z,54.47
2019-05-06T18:52:13.568Z,54.58
2019-05-06T18:54:45.612Z,55.31
2019-05-06T18:57:17.488Z,55.67
2019-05-06T18:59:50.505Z,55.73
2019-05-06T19:02:22.906Z,55.48
2019-05-06T19:04:56.530Z,56.02
2019-05-06T19:07:27.587Z,56.95
2019-05-06T19:10:03.188Z,56.61
2019-05-06T19:12:41.344Z,56.70
2019-05-06T19:15:12.711Z,56.65
2019-05-06T19:17:44.514Z,56.87
2019-05-06T19:20:16.688Z,57.35
2019-05-06T19:22:48.171Z,58.33
2019-05-06T19:25:26.570Z,58.05
2019-05-06T19:28:04.176Z,58.11
2019-05-06T19:30:35.470Z,58.69
2019-05-06T19:33:07.324Z,59.36
2019-05-06T19:35:40.080Z,58.98
2019-05-06T19:38:12.567Z,59.25
2019-05-06T19:40:44.326Z,58.94
2019-05-06T19:43:18.177Z,59.47
2019-05-06T19:45:50.143Z,59.68
2019-05-06T19:48:24.698Z,60.33
2019-05-06T19:50:55.171Z,60.77
2019-05-06T19:53:38.023Z,61.29
2019-05-06T19:56:16.181Z,61.11
2019-05-06T19:58:48.925Z,61.10
2019-05-06T20:01:22.738Z,60.79
2019-05-06T20:03:54.662Z,61.18
2019-05-06T20:06:28.585Z,61.37
2019-05-06T20:09:03.315Z,61.39
2019-05-06T20:11:36.592Z,61.82
2019-05-06T20:14:08.381Z,61.92
2019-05-06T20:16:41.955Z,61.36
2019-05-06T20:19:27.122Z,61.62
2019-05-06T20:21:46.958Z,61.53
2019-05-06T20:24:18.502Z,60.58
2019-05-06T20:26:52.702Z,61.15
2019-05-06T20:29:24.549Z,61.99
2019-05-06T20:31:56.149Z,59.19
2019-05-06T20:34:38.148Z,58.11
2019-05-06T20:37:17.795Z,58.11
2019-05-06T20:39:49.839Z,57.76
2019-05-06T20:42:23.510Z,57.74
2019-05-06T20:44:57.105Z,57.55
2019-05-06T20:47:28.993Z,57.99
2019-05-06T20:50:08.064Z,57.95
2019-05-06T20:52:39.705Z,57.18
2019-05-06T20:55:15.191Z,56.35
2019-05-06T20:57:45.081Z,56.72
2019-05-06T21:00:17.121Z,57.03
2019-05-06T21:02:49.202Z,57.57
2019-05-06T21:05:22.781Z,56.65
2019-05-06T21:07:54.158Z,57.13
2019-05-06T21:10:28.115Z,56.97
2019-05-06T21:12:59.477Z,57.62
2019-05-06T21:15:32.359Z,56.88
2019-05-06T21:18:04.517Z,56.98
2019-05-06T21:20:37.937Z,57.28
2019-05-06T21:23:11.088Z,57.53
2019-05-06T21:25:43.169Z,57.55
2019-05-06T21:28:15.489Z,56.99
2019-05-06T21:30:47.618Z,57.54
2019-05-06T21:33:22.126Z,57.92
2019-05-06T21:35:54.690Z,57.51
2019-05-06T21:38:26.421Z,58.46
2019-05-06T21:40:57.552Z,59.22
2019-05-06T21:43:42.237Z,59.32
2019-05-06T21:46:02.506Z,59.33
2019-05-06T21:48:35.616Z,59.87
2019-05-06T21:51:07.342Z,60.69
2019-05-06T21:53:40.596Z,61.08
2019-05-06T21:56:13.086Z,61.14
2019-05-06T21:58:45.895Z,61.65
2019-05-06T22:01:19.668Z,63.47
2019-05-06T22:03:52.355Z,64.47
2019-05-06T22:06:24.581Z,64.66
2019-05-06T22:08:58.066Z,64.69
2019-05-06T22:11:29.604Z,65.23
2019-05-06T22:14:01.836Z,65.84
2019-05-06T22:16:33.808Z,65.85
2019-05-06T22:19:05.886Z,65.74
2019-05-06T22:21:38.608Z,65.74
2019-05-06T22:24:12.104Z,65.94
2019-05-06T22:26:43.946Z,67.18
2019-05-06T22:29:16.405Z,66.26
2019-05-06T22:31:48.179Z,66.98
2019-05-06T22:34:22.103Z,66.22
2019-05-06T22:36:54.303Z,66.83
2019-05-06T22:39:27.170Z,65.58
2019-05-06T22:41:58.455Z,65.42
2019-05-06T22:44:32.336Z,66.27
2019-05-06T22:47:04.081Z,66.54
2019-05-06T22:49:35.247Z,66.26
2019-05-06T22:52:07.714Z,66.17
2019-05-06T22:54:39.922Z,65.10
2019-05-06T22:57:13.159Z,65.31
2019-05-06T22:59:45.060Z,65.15
2019-05-06T23:02:17.975Z,65.45
2019-05-06T23:04:52.989Z,65.37
2019-05-06T23:07:24.439Z,65.92
2019-05-06T23:09:56.359Z,66.10
2019-05-06T23:12:27.821Z,66.72
2019-05-06T23:14:59.240Z,66.22
2019-05-06T23:17:34.267Z,66.60
2019-05-06T23:20:07.401Z,67.14
2019-05-06T23:22:40.207Z,66.82
2019-05-06T23:25:13.577Z,68.19
2019-05-06T23:27:46.303Z,68.68
2019-05-06T23:30:19.241Z,69.01
2019-05-06T23:32:52.928Z,69.65
2019-05-06T23:35:24.917Z,69.38
2019-05-06T23:37:59.333Z,70.15
2019-05-06T23:40:35.859Z,71.14
2019-05-06T23:43:12.644Z,71.04
2019-05-06T23:45:47.506Z,71.08
2019-05-06T23:48:22.856Z,70.65
2019-05-06T23:50:57.719Z,70.55
2019-05-06T23:53:33.121Z,71.40
2019-05-06T23:56:08.568Z,72.14
2019-05-06T23:58:40.329Z,71.89
